Time;durP1;ratioP1;P1;durP2;ratioP2;P2;SDS_P1;SDS_P2;PMS_P1;PMS_P2;Temp;Humidity;BMP_temperature;BMP_pressure;BME280_temperature;BME280_humidity;BME280_pressure;Samples;Min_cycle;Max_cycle;Signal;HPM_P1;HPM_P2
2021/12/11 00:01:06;;;;;;;2.97;0.82;;;;;;;-0.59;100.00;91725.00;2098595;28;20027;-84
2021/12/11 00:02:19;;;;;;;1.83;0.77;;;;;;;-0.60;100.00;91728.00;2091509;28;20402;-84
2021/12/11 00:03:28;;;;;;;0.40;0.40;;;;;;;-0.45;100.00;91726.06;2093594;28;20017;-84
2021/12/11 00:04:33;;;;;;;1.60;0.57;;;;;;;-0.58;100.00;91733.63;2098585;28;20671;-84
2021/12/11 00:05:36;;;;;;;1.13;0.70;;;;;;;-0.42;100.00;91739.19;2091543;28;20526;-84
2021/12/11 00:06:42;;;;;;;0.63;0.60;;;;;;;-0.51;100.00;91736.22;2103186;28;20027;-83
2021/12/11 00:07:43;;;;;;;1.40;0.60;;;;;;;-0.61;100.00;91737.00;2098972;28;20588;-84
2021/12/11 00:08:47;;;;;;;1.33;0.73;;;;;;;-0.54;100.00;91742.22;2106965;28;20031;-84
2021/12/11 00:09:57;;;;;;;0.70;0.70;;;;;;;-0.63;100.00;91736.63;2098845;28;20047;-84
2021/12/11 00:11:00;;;;;;;;;;;;;;;-0.71;100.00;91738.50;2101579;28;20024;-84
2021/12/11 00:12:27;;;;;;;0.90;0.52;;;;;;;-0.63;100.00;91747.13;2098637;28;19915;-83
2021/12/11 00:13:30;;;;;;;1.13;0.52;;;;;;;-0.44;100.00;91735.44;2105546;28;20437;-84
2021/12/11 00:14:36;;;;;;;0.68;0.65;;;;;;;-0.38;100.00;91744.44;2098815;28;20047;-84
2021/12/11 00:15:46;;;;;;;0.60;0.60;;;;;;;-0.45;100.00;91744.44;2107385;28;20749;-84
2021/12/11 00:16:49;;;;;;;2.17;0.63;;;;;;;-0.56;100.00;91745.25;2108256;28;20019;-84
2021/12/11 00:18:04;;;;;;;0.90;0.70;;;;;;;-0.56;100.00;91749.75;2098225;28;20403;-84
2021/12/11 00:19:09;;;;;;;0.80;0.65;;;;;;;-0.62;100.00;91746.75;2100285;28;20020;-84
2021/12/11 00:20:19;;;;;;;1.40;0.63;;;;;;;-0.59;100.00;91753.13;2090587;28;20021;-84
2021/12/11 00:21:23;;;;;;;1.85;0.82;;;;;;;-0.66;100.00;91750.50;2098063;28;20032;-85
2021/12/11 00:22:29;;;;;;;1.60;0.77;;;;;;;-0.65;100.00;91755.38;2115163;28;20023;-84
2021/12/11 00:23:40;;;;;;;0.70;0.60;;;;;;;-0.41;100.00;91758.31;2115149;28;20023;-84
2021/12/11 00:24:42;;;;;;;2.83;0.65;;;;;;;-0.43;100.00;91757.97;2099810;28;20028;-84
2021/12/11 00:25:44;;;;;;;0.60;0.60;;;;;;;-0.53;100.00;91762.84;2098590;28;20024;-84
2021/12/11 00:26:51;;;;;;;0.70;0.47;;;;;;;-0.61;100.00;91756.13;2106941;28;20016;-84
2021/12/11 00:28:01;;;;;;;1.15;0.70;;;;;;;-0.56;100.00;91760.25;2098952;28;20024;-84
2021/12/11 00:29:03;;;;;;;;;;;;;;;-0.47;100.00;91751.97;2101510;28;20024;-85
2021/12/11 00:30:11;;;;;;;1.45;0.60;;;;;;;-0.53;100.00;91756.84;2098426;28;20003;-84
2021/12/11 00:31:12;;;;;;;0.77;0.70;;;;;;;-0.27;100.00;91759.00;2107742;28;20023;-84
2021/12/11 00:32:24;;;;;;;0.50;0.50;;;;;;;-0.13;100.00;91768.72;2114804;28;20049;-85
2021/12/11 00:33:31;;;;;;;1.65;0.60;;;;;;;-0.27;100.00;91764.25;2108074;28;20020;-84
2021/12/11 00:34:34;;;;;;;0.77;0.77;;;;;;;-0.27;100.00;91766.88;2099194;28;20020;-85
2021/12/11 00:35:36;;;;;;;0.57;0.50;;;;;;;-0.37;100.00;91772.19;2098398;28;20028;-84
2021/12/11 00:36:37;;;;;;;0.75;0.60;;;;;;;-0.50;100.00;91769.22;2106781;28;20519;-85
2021/12/11 00:37:43;;;;;;;2.08;0.60;;;;;;;-0.51;100.00;91776.34;2106411;28;20533;-84
2021/12/11 00:38:48;;;;;;;0.82;0.50;;;;;;;-0.32;100.00;91779.66;2099888;28;20028;-84
2021/12/11 00:40:03;;;;;;;1.27;0.55;;;;;;;-0.31;100.00;91776.66;2095905;28;20020;-84
2021/12/11 00:41:14;;;;;;;1.48;0.60;;;;;;;-0.15;100.00;91783.34;2093822;28;20047;-84
2021/12/11 00:42:15;;;;;;;;;;;;;;;-0.29;100.00;91779.66;2099283;28;20029;-84
2021/12/11 00:43:21;;;;;;;0.75;0.60;;;;;;;-0.31;100.00;91778.53;2098210;28;19912;-84
2021/12/11 00:44:42;;;;;;;0.88;0.50;;;;;;;-0.30;100.00;91783.41;2099459;28;20185;-84
2021/12/11 00:45:47;;;;;;;0.40;0.40;;;;;;;-0.24;100.00;91788.28;2101141;28;20026;-84
2021/12/11 00:46:48;;;;;;;1.75;0.55;;;;;;;-0.20;100.00;91789.00;2098776;28;20117;-84
2021/12/11 00:48:01;;;;;;;0.75;0.60;;;;;;;-0.24;100.00;91790.91;2089895;28;20115;-84
2021/12/11 00:49:19;;;;;;;1.10;0.60;;;;;;;-0.32;100.00;91793.53;2100650;28;20051;-84
2021/12/11 00:50:26;;;;;;;0.95;0.65;;;;;;;-0.40;100.00;91794.66;2109021;28;20076;-84
2021/12/11 00:51:28;;;;;;;1.20;0.65;;;;;;;-0.49;100.00;91791.69;2109412;28;20027;-84
2021/12/11 00:52:39;;;;;;;1.67;0.88;;;;;;;-0.54;100.00;91790.22;2114739;28;20404;-84
2021/12/11 00:53:49;;;;;;;1.85;0.60;;;;;;;-0.19;100.00;91807.00;2099599;28;20029;-84
2021/12/11 00:54:50;;;;;;;0.70;0.70;;;;;;;-0.22;100.00;91796.50;2100729;28;20428;-83
2021/12/11 00:55:58;;;;;;;0.80;0.43;;;;;;;-0.17;100.00;91802.13;2106576;28;20032;-84
2021/12/11 00:56:59;;;;;;;0.50;0.50;;;;;;;-0.37;100.00;91804.41;2107186;28;20035;-84
2021/12/11 00:58:19;;;;;;;0.82;0.50;;;;;;;-0.39;100.00;91798.81;2106559;28;20118;-84
2021/12/11 00:59:23;;;;;;;1.15;0.60;;;;;;;-0.57;100.00;91801.47;2100610;28;20082;-84
2021/12/11 01:00:26;;;;;;;1.63;0.70;;;;;;;-0.47;100.00;91809.72;2107360;27;20020;-84
2021/12/11 01:01:28;;;;;;;1.77;0.60;;;;;;;-0.53;100.00;91817.97;2114791;28;20019;-84
2021/12/11 01:02:31;;;;;;;0.55;0.55;;;;;;;-0.49;100.00;91814.56;2106486;28;20038;-84
2021/12/11 01:03:56;;;;;;;0.68;0.68;;;;;;;-0.47;100.00;91817.59;2098057;28;20029;-84
2021/12/11 01:04:57;;;;;;;1.45;0.60;;;;;;;-0.45;100.00;91817.94;2104669;28;20026;-84
2021/12/11 01:06:06;;;;;;;1.60;0.85;;;;;;;-0.54;100.00;91823.56;2098061;28;20047;-84
2021/12/11 01:07:19;;;;;;;1.88;0.60;;;;;;;-0.26;100.00;91825.41;2100073;28;20041;-84
2021/12/11 01:08:36;;;;;;;1.05;0.50;;;;;;;-0.54;100.00;91828.81;2099804;28;20040;-84
2021/12/11 01:09:48;;;;;;;1.25;0.60;;;;;;;-0.35;100.00;91835.53;2099909;28;20525;-85
2021/12/11 01:10:57;;;;;;;0.50;0.50;;;;;;;-0.40;100.00;91836.66;2106668;28;20048;-84
2021/12/11 01:12:11;;;;;;;1.48;0.80;;;;;;;-0.44;100.00;91832.56;2100423;28;20016;-84
2021/12/11 01:13:15;;;;;;;0.60;0.60;;;;;;;-0.54;100.00;91837.44;2101723;28;20020;-84
2021/12/11 01:14:32;;;;;;;2.15;0.60;;;;;;;-0.43;100.00;91828.81;2097677;28;20095;-85
2021/12/11 01:16:05;;;;;;;0.73;0.57;;;;;;;-0.31;100.00;91836.28;2107200;28;20058;-84
2021/12/11 01:17:24;;;;;;;1.05;0.65;;;;;;;-0.21;100.00;91840.03;2101348;28;20091;-85
2021/12/11 01:18:36;;;;;;;0.50;0.50;;;;;;;-0.16;100.00;91844.88;2089386;28;20473;-84
2021/12/11 01:19:40;;;;;;;1.85;0.50;;;;;;;-0.25;100.00;91845.28;2095196;28;20455;-85
2021/12/11 01:20:58;;;;;;;0.50;0.40;;;;;;;-0.51;100.00;91841.19;2097677;28;20032;-84
2021/12/11 01:22:09;;;;;;;1.75;0.70;;;;;;;-0.64;100.00;91851.34;2094101;28;20036;-85
2021/12/11 01:23:17;;;;;;;0.63;0.60;;;;;;;-0.37;100.00;91843.06;2093790;28;20574;-85
2021/12/11 01:25:49;;;;;;;0.75;0.50;;;;;;;-0.55;100.00;91850.94;2097873;28;20055;-85
2021/12/11 01:26:52;;;;;;;1.48;0.57;;;;;;;-0.43;100.00;91855.06;2089440;28;20025;-85
2021/12/11 01:27:58;;;;;;;2.20;0.65;;;;;;;-0.43;100.00;91857.69;2081545;28;20367;-84
2021/12/11 01:29:03;;;;;;;3.42;0.70;;;;;;;-0.28;100.00;91856.53;2090835;28;20031;-84
2021/12/11 01:30:11;;;;;;;0.68;0.50;;;;;;;-0.23;100.00;91863.28;2089817;28;20111;-83
2021/12/11 01:31:15;;;;;;;0.75;0.65;;;;;;;-0.47;100.00;91867.44;2091738;28;20025;-84
2021/12/11 01:32:17;;;;;;;2.38;0.70;;;;;;;-0.37;100.00;91869.31;2094875;28;20059;-85
2021/12/11 01:33:18;;;;;;;0.65;0.60;;;;;;;-0.32;100.00;91871.53;2089691;28;20094;-85
2021/12/11 01:34:19;;;;;;;1.05;0.50;;;;;;;-0.43;100.00;91881.31;2097887;28;20029;-84
2021/12/11 01:35:22;;;;;;;0.60;0.60;;;;;;;-0.43;100.00;91881.31;2097747;28;20024;-85
2021/12/11 01:36:23;;;;;;;1.65;0.80;;;;;;;-0.51;100.00;91872.69;2089938;28;20021;-84
2021/12/11 01:37:25;;;;;;;1.55;0.82;;;;;;;-0.53;100.00;91885.44;2097325;28;20693;-84
2021/12/11 01:38:29;;;;;;;0.80;0.70;;;;;;;-0.45;100.00;91881.69;2089809;28;20111;-84
2021/12/11 01:39:34;;;;;;;1.45;0.80;;;;;;;-0.59;100.00;91876.44;2102905;28;20024;-84
2021/12/11 01:40:45;;;;;;;0.73;0.63;;;;;;;-0.49;100.00;91872.31;2106732;28;20036;-85
2021/12/11 01:41:48;;;;;;;2.15;0.98;;;;;;;-0.42;100.00;91883.56;2097741;28;20024;-85
2021/12/11 01:42:49;;;;;;;0.82;0.63;;;;;;;-0.35;100.00;91882.78;2089844;28;20557;-85
2021/12/11 01:43:57;;;;;;;1.48;0.57;;;;;;;-0.41;100.00;91882.44;2106147;28;20031;-85
2021/12/11 01:44:59;;;;;;;1.38;0.68;;;;;;;-0.48;100.00;91892.16;2098822;28;20022;-85
2021/12/11 01:46:03;;;;;;;0.82;0.65;;;;;;;-0.47;100.00;91883.94;2089716;28;20021;-85
2021/12/11 01:47:12;;;;;;;1.63;0.60;;;;;;;-0.29;100.00;91886.53;2090339;28;20025;-84
2021/12/11 01:48:19;;;;;;;3.42;1.17;;;;;;;-0.31;100.00;91889.56;2106080;28;20020;-84
2021/12/11 01:49:21;;;;;;;1.05;0.70;;;;;;;-0.45;100.00;91894.06;2106145;28;20056;-84
2021/12/11 01:50:38;;;;;;;1.17;0.77;;;;;;;-0.42;100.00;91890.69;2097961;28;20021;-84
2021/12/11 01:51:52;;;;;;;3.10;0.70;;;;;;;-0.39;100.00;91892.56;2106029;28;20035;-84
2021/12/11 01:53:05;;;;;;;2.13;0.70;;;;;;;-0.55;100.00;91890.31;2101098;28;20504;-84
2021/12/11 01:54:17;;;;;;;0.82;0.50;;;;;;;-0.37;100.00;91893.66;2099393;28;20554;-84
2021/12/11 01:55:35;;;;;;;1.63;0.68;;;;;;;-0.46;100.00;91898.56;2092517;28;20111;-83
2021/12/11 01:56:41;;;;;;;1.95;0.60;;;;;;;-0.39;100.00;91895.19;2108293;28;20020;-84
2021/12/11 01:57:51;;;;;;;2.53;0.73;;;;;;;-0.45;100.00;91896.69;2098026;28;20039;-84
2021/12/11 01:59:08;;;;;;;1.63;0.68;;;;;;;-0.49;100.00;91901.19;2100193;28;20020;-84
2021/12/11 02:00:18;;;;;;;1.10;0.65;;;;;;;-0.52;100.00;91902.69;2099601;28;20390;-85
2021/12/11 02:02:03;;;;;;;1.10;0.60;;;;;;;-0.51;100.00;91907.56;2098837;28;20071;-85
2021/12/11 02:03:08;;;;;;;0.50;0.50;;;;;;;-0.54;100.00;91905.69;2087484;28;20042;-84
2021/12/11 02:04:11;;;;;;;0.73;0.40;;;;;;;-0.57;100.00;91901.19;2097999;28;20481;-85
2021/12/11 02:05:19;;;;;;;1.90;0.73;;;;;;;-0.45;100.00;91909.81;2089761;28;20032;-83
2021/12/11 02:06:20;;;;;;;1.60;0.73;;;;;;;-0.33;100.00;91909.44;2082887;28;20059;-84
2021/12/11 02:09:26;;;;;;;;;;;;;;;-0.35;100.00;91911.66;2149078;27;20116;-85
2021/12/11 02:10:35;;;;;;;0.63;0.40;;;;;;;-0.38;100.00;91922.94;2138895;27;19981;-85
2021/12/11 02:11:36;;;;;;;0.70;0.50;;;;;;;-0.55;100.00;91919.94;2122837;27;20031;-85
2021/12/11 02:12:40;;;;;;;0.55;0.55;;;;;;;-0.53;100.00;91920.31;2121717;27;20721;-85
2021/12/11 02:13:51;;;;;;;0.80;0.70;;;;;;;-0.35;100.00;91928.19;2122292;27;20109;-85
2021/12/11 02:14:54;;;;;;;0.98;0.57;;;;;;;-0.20;100.00;91931.53;2114670;28;20032;-85
2021/12/11 02:15:55;;;;;;;2.85;0.77;;;;;;;-0.39;100.00;91930.06;2105332;28;20051;-85
2021/12/11 02:16:58;;;;;;;0.68;0.63;;;;;;;-0.30;100.00;91927.06;2104777;28;20040;-84
2021/12/11 02:18:12;;;;;;;0.60;0.60;;;;;;;-0.33;100.00;91931.16;2113976;27;20121;-85
2021/12/11 02:19:20;;;;;;;1.90;0.75;;;;;;;-0.36;100.00;91931.16;2121756;28;20070;-85
2021/12/11 02:20:31;;;;;;;1.13;0.77;;;;;;;-0.41;100.00;91927.03;2122843;27;20094;-85
2021/12/11 02:21:42;;;;;;;2.47;1.13;;;;;;;-0.39;100.00;91931.94;2128995;27;20122;-85
2021/12/11 02:22:48;;;;;;;1.05;0.70;;;;;;;-0.47;100.00;91931.19;2124577;27;20059;-85
2021/12/11 02:24:03;;;;;;;1.48;0.80;;;;;;;-0.33;100.00;91935.69;2130319;27;20050;-85
2021/12/11 02:25:14;;;;;;;0.70;0.70;;;;;;;-0.29;100.00;91931.19;2117032;27;20548;-85
2021/12/11 02:26:18;;;;;;;0.93;0.80;;;;;;;-0.34;100.00;91932.31;2124588;27;20152;-85
2021/12/11 02:27:24;;;;;;;0.93;0.55;;;;;;;-0.21;100.00;91932.66;2121360;28;20031;-85
2021/12/11 02:28:31;;;;;;;0.60;0.60;;;;;;;-0.23;100.00;91929.66;2114377;27;20023;-86
2021/12/11 02:29:37;;;;;;;1.63;0.70;;;;;;;-0.29;100.00;91925.94;2120688;27;20388;-85
2021/12/11 02:31:00;;;;;;;1.02;0.75;;;;;;;-0.42;100.00;91930.81;2113469;27;20028;-85
2021/12/11 02:32:18;;;;;;;0.52;0.52;;;;;;;-0.57;100.00;91927.44;2127130;27;20103;-85
2021/12/11 02:33:36;;;;;;;0.77;0.70;;;;;;;-0.54;100.00;91926.66;2117629;27;20027;-85
2021/12/11 02:34:54;;;;;;;0.60;0.60;;;;;;;-0.59;100.00;91919.19;2126543;27;20112;-85
2021/12/11 02:36:22;;;;;;;1.27;0.77;;;;;;;-0.51;100.00;91927.81;2121567;28;20114;-84
2021/12/11 02:37:36;;;;;;;0.50;0.50;;;;;;;-0.51;100.00;91930.44;2116801;28;20028;-85
2021/12/11 02:38:51;;;;;;;0.57;0.43;;;;;;;-0.40;100.00;91933.03;2123521;27;20074;-84
2021/12/11 02:40:00;;;;;;;0.68;0.60;;;;;;;-0.29;100.00;91926.66;2115212;28;20034;-85
2021/12/11 02:41:03;;;;;;;1.55;0.70;;;;;;;-0.41;100.00;91923.69;2112156;28;20077;-85
2021/12/11 02:42:12;;;;;;;0.50;0.50;;;;;;;-0.55;100.00;91927.81;2104879;28;20492;-85
2021/12/11 02:43:31;;;;;;;1.48;0.60;;;;;;;-0.45;100.00;91923.66;2121644;28;20080;-85
2021/12/11 02:44:41;;;;;;;0.73;0.60;;;;;;;-0.46;100.00;91926.69;2112137;27;20032;-85
2021/12/11 02:45:44;;;;;;;;;;;;;;;-0.45;100.00;91930.78;2123294;27;20122;-85
2021/12/11 02:46:58;;;;;;;0.65;0.60;;;;;;;-0.55;100.00;91922.56;2130391;27;20303;-85
2021/12/11 02:48:06;;;;;;;0.43;0.43;;;;;;;-0.47;100.00;91925.94;2130013;27;20345;-85
2021/12/11 02:49:23;;;;;;;0.60;0.60;;;;;;;-0.45;100.00;91922.91;2121820;27;20051;-85
2021/12/11 02:50:39;;;;;;;0.93;0.50;;;;;;;-0.38;100.00;91928.19;2118549;27;20015;-85
2021/12/11 02:51:56;;;;;;;1.30;0.50;;;;;;;-0.43;100.00;91924.06;2109486;28;20714;-85
2021/12/11 02:53:08;;;;;;;1.08;0.50;;;;;;;-0.45;100.00;91931.53;2117234;27;20782;-84
2021/12/11 02:54:34;;;;;;;1.17;0.73;;;;;;;-0.37;100.00;91937.56;2121315;28;20024;-85
2021/12/11 02:55:50;;;;;;;0.77;0.60;;;;;;;-0.48;100.00;91934.16;2119951;27;20023;-85
2021/12/11 02:57:00;;;;;;;0.88;0.60;;;;;;;-0.39;100.00;91940.56;2115016;28;20642;-85
2021/12/11 02:58:16;;;;;;;0.82;0.60;;;;;;;-0.53;100.00;91945.78;2120612;27;20468;-85
2021/12/11 02:59:22;;;;;;;0.75;0.60;;;;;;;-0.55;100.00;91945.44;2115131;28;20129;-85
2021/12/11 03:00:46;;;;;;;1.52;0.68;;;;;;;-0.38;100.00;91955.19;2106003;28;20419;-85
2021/12/11 03:02:02;;;;;;;0.60;0.60;;;;;;;-0.41;100.00;91952.56;2111122;28;20031;-84
2021/12/11 03:03:31;;;;;;;1.55;0.60;;;;;;;-0.22;100.00;91959.28;2114939;28;20020;-85
2021/12/11 03:05:24;;;;;;;0.60;0.52;;;;;;;-0.23;100.00;91965.66;2110919;28;20042;-85
2021/12/11 03:06:44;;;;;;;1.52;0.50;;;;;;;-0.27;100.00;91969.03;2113998;28;20062;-85
2021/12/11 03:07:53;;;;;;;1.20;0.60;;;;;;;-0.23;100.00;91966.41;2113443;28;20043;-85
2021/12/11 03:09:15;;;;;;;0.95;0.70;;;;;;;-0.31;100.00;91965.69;2114876;27;20048;-85
2021/12/11 03:10:26;;;;;;;0.80;0.50;;;;;;;-0.21;100.00;91972.06;2133090;27;20030;-85
2021/12/11 03:11:32;;;;;;;1.85;0.50;;;;;;;-0.28;100.00;91969.44;2129494;27;20027;-85
2021/12/11 03:12:34;;;;;;;1.38;1.00;;;;;;;-0.25;100.00;91973.94;2112315;28;20565;-85
2021/12/11 03:13:38;;;;;;;0.85;0.60;;;;;;;-0.35;100.00;91969.41;2104607;28;20028;-85
2021/12/11 03:14:41;;;;;;;0.60;0.60;;;;;;;-0.33;100.00;91973.19;2104861;28;20165;-85
2021/12/11 03:15:42;;;;;;;0.47;0.47;;;;;;;-0.53;100.00;91975.44;2103954;28;20123;-85
2021/12/11 03:16:44;;;;;;;1.40;0.63;;;;;;;-0.57;100.00;91968.66;2096070;28;20029;-85
2021/12/11 03:17:46;;;;;;;0.70;0.60;;;;;;;-0.59;100.00;91966.41;2096196;28;20025;-85
2021/12/11 03:18:48;;;;;;;1.00;0.70;;;;;;;-0.30;100.00;91979.56;2104653;28;20057;-85
2021/12/11 03:19:51;;;;;;;2.72;0.68;;;;;;;-0.55;100.00;91977.66;2104860;27;20036;-85
2021/12/11 03:20:53;;;;;;;0.65;0.60;;;;;;;-0.56;100.00;91980.66;2113718;28;20020;-85
2021/12/11 03:21:58;;;;;;;0.55;0.50;;;;;;;-0.61;100.00;91986.28;2107253;28;20055;-84
2021/12/11 03:23:00;;;;;;;0.85;0.60;;;;;;;-0.52;100.00;91984.06;2107814;28;20429;-85
2021/12/11 03:24:06;;;;;;;1.23;0.60;;;;;;;-0.57;100.00;91990.41;2101077;28;20119;-85
2021/12/11 03:25:12;;;;;;;0.85;0.50;;;;;;;-0.43;100.00;91994.94;2108132;28;20482;-84
2021/12/11 03:26:14;;;;;;;0.60;0.60;;;;;;;-0.50;100.00;91987.03;2107869;28;20102;-85
2021/12/11 03:27:26;;;;;;;0.85;0.60;;;;;;;-0.45;100.00;91991.16;2098664;28;20028;-85
2021/12/11 03:28:30;;;;;;;1.38;0.60;;;;;;;-0.54;100.00;92002.03;2105688;27;20032;-84
2021/12/11 03:29:57;;;;;;;0.60;0.52;;;;;;;-0.51;100.00;91996.78;2106770;28;20031;-85
2021/12/11 03:31:30;;;;;;;2.00;0.60;;;;;;;-0.57;100.00;91998.28;2102930;28;20389;-85
2021/12/11 03:32:32;;;;;;;0.52;0.50;;;;;;;-0.54;100.00;92004.66;2111222;27;20039;-84
2021/12/11 03:33:39;;;;;;;0.73;0.60;;;;;;;-0.49;100.00;92014.78;2115570;28;20019;-85
2021/12/11 03:34:42;;;;;;;0.50;0.50;;;;;;;-0.47;100.00;92012.53;2115416;28;20167;-85
2021/12/11 03:35:46;;;;;;;1.30;0.50;;;;;;;-0.57;100.00;92014.03;2115933;27;20031;-85
2021/12/11 03:36:48;;;;;;;3.72;0.70;;;;;;;-0.60;100.00;92019.28;2099316;28;20029;-85
2021/12/11 03:37:50;;;;;;;1.15;0.50;;;;;;;-0.60;100.00;92014.78;2098780;28;20055;-85
2021/12/11 03:39:03;;;;;;;0.63;0.63;;;;;;;-0.60;100.00;92025.28;2098665;28;20063;-85
2021/12/11 03:40:05;;;;;;;1.15;1.00;;;;;;;-0.59;100.00;92029.38;2093660;28;20028;-84
2021/12/11 03:41:07;;;;;;;0.98;0.90;;;;;;;-0.58;100.00;92030.13;2090881;28;20035;-85
2021/12/11 03:42:33;;;;;;;0.77;0.57;;;;;;;-0.52;100.00;92024.16;2107024;27;20492;-85
2021/12/11 03:43:41;;;;;;;0.60;0.60;;;;;;;-0.55;100.00;92022.28;2106952;28;20028;-85
2021/12/11 03:45:00;;;;;;;1.38;0.52;;;;;;;-0.54;100.00;92030.91;2100782;28;20126;-85
2021/12/11 03:46:07;;;;;;;0.60;0.60;;;;;;;-0.49;100.00;92032.41;2101211;28;20040;-85
2021/12/11 03:47:17;;;;;;;1.83;0.47;;;;;;;-0.31;100.00;92033.16;2091958;28;20531;-85
2021/12/11 03:48:44;;;;;;;0.40;0.40;;;;;;;-0.43;100.00;92036.19;2099868;28;20029;-85
2021/12/11 03:49:46;;;;;;;0.65;0.50;;;;;;;-0.43;100.00;92042.19;2097547;28;20032;-85
2021/12/11 03:50:57;;;;;;;0.40;0.40;;;;;;;-0.35;100.00;92043.69;2098921;28;20102;-85
2021/12/11 03:52:06;;;;;;;0.40;0.40;;;;;;;-0.23;100.00;92039.94;2103290;27;20490;-85
2021/12/11 03:53:09;;;;;;;0.85;0.43;;;;;;;-0.39;100.00;92044.81;2108103;28;20130;-85
2021/12/11 03:54:14;;;;;;;0.57;0.57;;;;;;;-0.48;100.00;92047.78;2098917;28;20029;-85
2021/12/11 03:55:23;;;;;;;0.65;0.45;;;;;;;-0.45;100.00;92043.66;2099806;28;20496;-85
2021/12/11 03:56:25;;;;;;;0.52;0.47;;;;;;;-0.54;100.00;92052.63;2108176;28;20111;-85
2021/12/11 03:57:28;;;;;;;0.55;0.43;;;;;;;-0.37;100.00;92050.44;2098434;28;20028;-85
2021/12/11 03:58:30;;;;;;;0.45;0.45;;;;;;;-0.48;100.00;92053.03;2101486;28;20024;-84
2021/12/11 03:59:31;;;;;;;0.47;0.47;;;;;;;-0.34;100.00;92060.19;2106901;28;20035;-85
2021/12/11 04:00:40;;;;;;;0.47;0.47;;;;;;;-0.27;100.00;92060.19;2106825;28;20024;-85
2021/12/11 04:01:45;;;;;;;0.38;0.38;;;;;;;-0.40;100.00;92056.41;2099755;28;20551;-85
2021/12/11 04:02:48;;;;;;;0.52;0.50;;;;;;;-0.51;100.00;92064.28;2091054;28;20083;-85
2021/12/11 04:03:53;;;;;;;0.50;0.50;;;;;;;-0.57;100.00;92068.38;2090780;28;20484;-85
2021/12/11 04:05:01;;;;;;;0.90;0.40;;;;;;;-0.58;100.00;92072.88;2107142;28;20511;-85
2021/12/11 04:06:08;;;;;;;1.95;0.50;;;;;;;-0.60;100.00;92071.75;2099480;28;20420;-85
2021/12/11 04:07:12;;;;;;;0.50;0.38;;;;;;;-0.57;100.00;92073.63;2099882;28;20428;-85
2021/12/11 04:08:18;;;;;;;0.55;0.45;;;;;;;-0.41;100.00;92076.66;2098886;28;20028;-85
2021/12/11 04:09:19;;;;;;;0.30;0.30;;;;;;;-0.40;100.00;92075.53;2091213;28;20045;-85
2021/12/11 04:10:20;;;;;;;0.30;0.30;;;;;;;-0.14;100.00;92084.97;2098479;28;20040;-85
2021/12/11 04:11:26;;;;;;;0.43;0.30;;;;;;;-0.14;100.00;92082.34;2106913;28;20016;-85
2021/12/11 04:12:28;;;;;;;0.30;0.30;;;;;;;-0.28;100.00;92077.81;2106532;28;20020;-85
2021/12/11 04:13:29;;;;;;;0.30;0.30;;;;;;;-0.20;100.00;92073.34;2098636;28;20499;-85
2021/12/11 04:14:33;;;;;;;0.57;0.43;;;;;;;-0.33;100.00;92085.31;2106909;28;20036;-85
2021/12/11 04:15:36;;;;;;;0.30;0.30;;;;;;;-0.34;100.00;92087.19;2096800;28;20025;-85
2021/12/11 04:16:38;;;;;;;0.30;0.30;;;;;;;-0.15;100.00;92082.72;2090796;28;20048;-85
2021/12/11 04:17:40;;;;;;;0.30;0.30;;;;;;;-0.23;100.00;92087.19;2105533;28;20505;-85
2021/12/11 04:18:46;;;;;;;0.50;0.50;;;;;;;-0.30;100.00;92082.69;2098791;28;20024;-85
2021/12/11 04:19:48;;;;;;;0.25;0.25;;;;;;;-0.39;100.00;92081.56;2099135;28;20637;-85
2021/12/11 04:20:53;;;;;;;0.30;0.30;;;;;;;-0.50;100.00;92094.66;2091686;28;20514;-85
2021/12/11 04:21:56;;;;;;;0.35;0.35;;;;;;;-0.38;100.00;92085.69;2106622;28;20078;-85
2021/12/11 04:22:57;;;;;;;1.85;0.28;;;;;;;-0.28;100.00;92085.69;2090383;28;20488;-86
2021/12/11 04:23:59;;;;;;;0.82;0.40;;;;;;;-0.30;100.00;92097.72;2090178;28;20128;-84
2021/12/11 04:25:01;;;;;;;0.20;0.20;;;;;;;-0.36;100.00;92096.56;2098736;28;20448;-85
2021/12/11 04:26:12;;;;;;;0.30;0.30;;;;;;;-0.48;100.00;92102.91;2098201;28;20024;-85
2021/12/11 04:27:17;;;;;;;0.30;0.30;;;;;;;-0.48;100.00;92102.91;2101097;28;20035;-85
2021/12/11 04:28:20;;;;;;;0.30;0.30;;;;;;;-0.49;100.00;92111.13;2107731;27;20065;-84
2021/12/11 04:29:22;;;;;;;0.98;0.50;;;;;;;-0.56;100.00;92109.25;2115245;27;20020;-84
2021/12/11 04:30:24;;;;;;;0.40;0.40;;;;;;;-0.55;100.00;92110.75;2115907;27;20027;-84
2021/12/11 04:31:29;;;;;;;0.60;0.43;;;;;;;-0.55;100.00;92118.63;2123480;27;20023;-85
2021/12/11 04:32:33;;;;;;;0.55;0.38;;;;;;;-0.52;100.00;92117.91;2113292;28;20084;-85
2021/12/11 04:33:39;;;;;;;0.30;0.30;;;;;;;-0.46;100.00;92116.41;2099232;28;20485;-85
2021/12/11 04:34:40;;;;;;;0.30;0.30;;;;;;;-0.41;100.00;92116.03;2107230;28;20062;-84
2021/12/11 04:35:43;;;;;;;0.30;0.30;;;;;;;-0.42;100.00;92117.16;2098270;28;20108;-84
2021/12/11 04:36:49;;;;;;;0.30;0.30;;;;;;;-0.59;100.00;92118.63;2098497;28;20558;-85
2021/12/11 04:37:49;;;;;;;0.40;0.40;;;;;;;-0.55;100.00;92126.50;2091057;28;20043;-84
2021/12/11 04:38:52;;;;;;;0.57;0.40;;;;;;;-0.57;100.00;92121.63;2098161;28;20404;-85
2021/12/11 04:39:59;;;;;;;0.30;0.30;;;;;;;-0.66;100.00;92123.06;2115224;27;20024;-85
2021/12/11 04:41:02;;;;;;;0.75;0.30;;;;;;;-0.45;100.00;92127.66;2114007;28;20453;-85
2021/12/11 04:42:16;;;;;;;0.20;0.20;;;;;;;-0.45;100.00;92125.78;2098493;28;20178;-85
2021/12/11 04:43:22;;;;;;;0.30;0.30;;;;;;;-0.51;100.00;92141.13;2108349;28;20024;-85
2021/12/11 04:44:34;;;;;;;0.30;0.30;;;;;;;-0.53;100.00;92124.25;2107270;28;20027;-85
2021/12/11 04:46:02;;;;;;;1.00;0.30;;;;;;;-0.45;100.00;92138.16;2121661;27;20463;-85
2021/12/11 04:49:00;;;;;;;0.30;0.30;;;;;;;-0.47;100.00;92138.53;2089387;28;20371;-85
2021/12/11 04:50:10;;;;;;;0.47;0.40;;;;;;;-0.46;100.00;92142.66;2108105;28;20024;-85
2021/12/11 04:51:21;;;;;;;0.30;0.30;;;;;;;-0.55;100.00;92144.88;2111955;27;20027;-85
2021/12/11 04:52:42;;;;;;;0.50;0.50;;;;;;;-0.50;100.00;92141.88;2107618;28;20115;-85
2021/12/11 04:55:14;;;;;;;0.25;0.25;;;;;;;-0.31;100.00;92146.06;2115443;28;20539;-85
2021/12/11 04:56:33;;;;;;;0.40;0.40;;;;;;;-0.55;100.00;92152.75;2114678;28;20110;-85
2021/12/11 05:00:59;;;;;;;0.30;0.30;;;;;;;-0.65;100.00;92166.59;2109056;28;20121;-85
2021/12/11 05:02:38;;;;;;;0.40;0.40;;;;;;;-0.68;100.00;92173.31;2089159;28;20547;-84
2021/12/11 05:04:05;;;;;;;0.30;0.30;;;;;;;-0.51;100.00;92172.63;2105770;28;20184;-84
2021/12/11 05:06:34;;;;;;;0.40;0.40;;;;;;;-0.28;100.00;92167.09;2113639;28;20111;-84
2021/12/11 05:08:26;;;;;;;0.45;0.32;;;;;;;-0.48;100.00;92171.16;2110219;28;20058;-84
2021/12/11 05:10:49;;;;;;;0.63;0.32;;;;;;;-0.61;100.00;92175.97;2107219;28;20024;-85
2021/12/11 05:12:09;;;;;;;;;;;;;;;-0.57;100.00;92170.72;2101181;28;20404;-85
2021/12/11 05:13:10;;;;;;;0.40;0.40;;;;;;;-0.51;100.00;92166.63;2111751;27;19911;-84
2021/12/11 05:14:14;;;;;;;0.50;0.50;;;;;;;-0.59;100.00;92173.72;2106351;28;20034;-85
2021/12/11 05:15:41;;;;;;;0.40;0.40;;;;;;;-0.68;100.00;92177.81;2093870;28;20536;-84
2021/12/11 05:16:46;;;;;;;0.82;0.35;;;;;;;-0.71;100.00;92176.66;2096903;28;20031;-85
2021/12/11 05:18:21;;;;;;;0.30;0.30;;;;;;;-0.76;100.00;92184.88;2090595;28;20484;-84
2021/12/11 05:19:22;;;;;;;0.30;0.30;;;;;;;-0.83;100.00;92182.25;2098500;28;20027;-84
2021/12/11 05:20:28;;;;;;;0.70;0.50;;;;;;;-0.76;100.00;92179.63;2106227;28;20383;-85
2021/12/11 05:21:29;;;;;;;0.65;0.40;;;;;;;-0.78;100.00;92182.63;2103730;28;20106;-84
2021/12/11 05:22:30;;;;;;;0.40;0.40;;;;;;;-0.67;100.00;92192.44;2097735;28;20504;-84
2021/12/11 05:23:32;;;;;;;0.57;0.40;;;;;;;-0.65;100.00;92190.19;2097862;28;20017;-84
2021/12/11 05:24:34;;;;;;;2.83;0.50;;;;;;;-0.74;100.00;92192.41;2106280;28;20019;-84
2021/12/11 05:25:35;;;;;;;0.30;0.30;;;;;;;-0.73;100.00;92192.03;2106275;28;20091;-84
2021/12/11 05:26:37;;;;;;;0.32;0.32;;;;;;;-0.80;100.00;92197.22;2097935;28;20497;-84
2021/12/11 05:27:39;;;;;;;1.15;0.40;;;;;;;-0.59;100.00;92193.97;2097576;28;20148;-84
2021/12/11 05:28:41;;;;;;;0.63;0.63;;;;;;;-0.63;100.00;92198.44;2089832;28;20068;-84
2021/12/11 05:29:43;;;;;;;0.32;0.30;;;;;;;-0.54;100.00;92199.59;2106555;28;20016;-83
2021/12/11 05:30:49;;;;;;;0.63;0.40;;;;;;;-0.65;100.00;92206.69;2114466;28;20190;-84
2021/12/11 05:31:50;;;;;;;0.38;0.38;;;;;;;-0.59;100.00;92202.59;2110928;28;20027;-84
2021/12/11 05:32:53;;;;;;;0.32;0.32;;;;;;;-0.60;100.00;92211.59;2097731;28;20162;-84